sensor_id;sensor_type;location;lat;lon;timestamp;P1;durP1;ratioP1;P2;durP2;ratioP2
57567;SDS011;43403;51.948;5.922;2023-01-01T00:01:18;28.60;;;18.13;;
57567;SDS011;43403;51.948;5.922;2023-01-01T00:03:48;41.83;;;23.95;;
57567;SDS011;43403;51.948;5.922;2023-01-01T00:06:14;35.65;;;17.63;;
57567;SDS011;43403;51.948;5.922;2023-01-01T00:08:40;21.85;;;11.23;;
57567;SDS011;43403;51.948;5.922;2023-01-01T00:11:08;37.60;;;22.02;;
57567;SDS011;43403;51.948;5.922;2023-01-01T00:13:35;25.83;;;12.20;;
57567;SDS011;43403;51.948;5.922;2023-01-01T00:16:08;22.67;;;12.15;;
57567;SDS011;43403;51.948;5.922;2023-01-01T00:18:35;23.52;;;9.80;;
57567;SDS011;43403;51.948;5.922;2023-01-01T00:21:02;20.55;;;10.65;;
57567;SDS011;43403;51.948;5.922;2023-01-01T00:23:28;16.20;;;7.13;;
57567;SDS011;43403;51.948;5.922;2023-01-01T00:25:55;13.43;;;6.15;;
57567;SDS011;43403;51.948;5.922;2023-01-01T00:28:21;13.23;;;6.90;;
57567;SDS011;43403;51.948;5.922;2023-01-01T00:30:47;14.23;;;4.82;;
57567;SDS011;43403;51.948;5.922;2023-01-01T00:33:13;16.08;;;4.65;;
57567;SDS011;43403;51.948;5.922;2023-01-01T00:35:40;11.40;;;3.88;;
57567;SDS011;43403;51.948;5.922;2023-01-01T00:38:06;15.40;;;4.80;;
57567;SDS011;43403;51.948;5.922;2023-01-01T00:40:32;10.55;;;4.20;;
57567;SDS011;43403;51.948;5.922;2023-01-01T00:42:59;11.95;;;4.15;;
57567;SDS011;43403;51.948;5.922;2023-01-01T00:45:25;12.30;;;2.95;;
57567;SDS011;43403;51.948;5.922;2023-01-01T00:47:53;15.20;;;3.67;;
57567;SDS011;43403;51.948;5.922;2023-01-01T00:50:20;15.43;;;3.63;;
57567;SDS011;43403;51.948;5.922;2023-01-01T00:52:47;13.25;;;3.53;;
57567;SDS011;43403;51.948;5.922;2023-01-01T00:55:14;7.78;;;3.17;;
57567;SDS011;43403;51.948;5.922;2023-01-01T00:57:40;10.80;;;3.97;;
57567;SDS011;43403;51.948;5.922;2023-01-01T01:00:07;10.30;;;3.17;;
57567;SDS011;43403;51.948;5.922;2023-01-01T01:02:34;12.02;;;4.90;;
57567;SDS011;43403;51.948;5.922;2023-01-01T01:05:00;19.80;;;7.55;;
57567;SDS011;43403;51.948;5.922;2023-01-01T01:07:32;8.32;;;2.67;;
57567;SDS011;43403;51.948;5.922;2023-01-01T01:09:58;5.28;;;2.63;;
57567;SDS011;43403;51.948;5.922;2023-01-01T01:12:24;13.80;;;2.67;;
57567;SDS011;43403;51.948;5.922;2023-01-01T01:14:51;12.18;;;2.63;;
57567;SDS011;43403;51.948;5.922;2023-01-01T01:17:17;11.80;;;2.63;;
57567;SDS011;43403;51.948;5.922;2023-01-01T01:19:43;6.40;;;2.22;;
57567;SDS011;43403;51.948;5.922;2023-01-01T01:22:10;11.60;;;2.80;;
57567;SDS011;43403;51.948;5.922;2023-01-01T01:24:36;6.88;;;2.63;;
57567;SDS011;43403;51.948;5.922;2023-01-01T01:27:02;9.50;;;2.80;;
57567;SDS011;43403;51.948;5.922;2023-01-01T01:29:28;9.02;;;2.30;;
57567;SDS011;43403;51.948;5.922;2023-01-01T01:31:55;10.05;;;2.05;;
57567;SDS011;43403;51.948;5.922;2023-01-01T01:34:21;7.70;;;2.08;;
57567;SDS011;43403;51.948;5.922;2023-01-01T01:36:53;9.13;;;2.30;;
57567;SDS011;43403;51.948;5.922;2023-01-01T01:39:19;7.80;;;1.88;;
57567;SDS011;43403;51.948;5.922;2023-01-01T01:41:46;7.25;;;2.05;;
57567;SDS011;43403;51.948;5.922;2023-01-01T01:46:57;6.55;;;1.88;;
57567;SDS011;43403;51.948;5.922;2023-01-01T01:49:26;10.20;;;1.92;;
57567;SDS011;43403;51.948;5.922;2023-01-01T01:51:54;6.47;;;2.00;;
57567;SDS011;43403;51.948;5.922;2023-01-01T01:54:21;7.30;;;1.92;;
57567;SDS011;43403;51.948;5.922;2023-01-01T01:56:51;7.50;;;1.92;;
57567;SDS011;43403;51.948;5.922;2023-01-01T01:59:18;8.65;;;2.30;;
57567;SDS011;43403;51.948;5.922;2023-01-01T02:01:45;11.30;;;2.33;;
57567;SDS011;43403;51.948;5.922;2023-01-01T02:04:12;7.75;;;2.38;;
57567;SDS011;43403;51.948;5.922;2023-01-01T02:06:38;7.85;;;2.05;;
57567;SDS011;43403;51.948;5.922;2023-01-01T02:09:05;9.88;;;1.92;;
57567;SDS011;43403;51.948;5.922;2023-01-01T02:11:32;7.38;;;1.90;;
57567;SDS011;43403;51.948;5.922;2023-01-01T02:13:59;5.32;;;2.20;;
57567;SDS011;43403;51.948;5.922;2023-01-01T02:19:36;7.68;;;2.30;;
57567;SDS011;43403;51.948;5.922;2023-01-01T02:22:16;10.13;;;1.90;;
57567;SDS011;43403;51.948;5.922;2023-01-01T02:29:57;8.38;;;2.90;;
57567;SDS011;43403;51.948;5.922;2023-01-01T02:32:27;6.57;;;2.17;;
57567;SDS011;43403;51.948;5.922;2023-01-01T02:35:05;7.25;;;2.20;;
57567;SDS011;43403;51.948;5.922;2023-01-01T02:37:53;8.90;;;2.00;;
57567;SDS011;43403;51.948;5.922;2023-01-01T02:40:22;6.68;;;1.98;;
57567;SDS011;43403;51.948;5.922;2023-01-01T02:42:49;5.78;;;2.40;;
57567;SDS011;43403;51.948;5.922;2023-01-01T02:45:15;5.53;;;1.55;;
57567;SDS011;43403;51.948;5.922;2023-01-01T02:47:42;7.03;;;2.03;;
57567;SDS011;43403;51.948;5.922;2023-01-01T02:52:44;16.25;;;2.42;;
57567;SDS011;43403;51.948;5.922;2023-01-01T02:55:35;6.35;;;2.55;;
57567;SDS011;43403;51.948;5.922;2023-01-01T02:58:07;6.53;;;1.98;;
57567;SDS011;43403;51.948;5.922;2023-01-01T03:00:56;9.15;;;1.70;;
57567;SDS011;43403;51.948;5.922;2023-01-01T03:03:29;5.68;;;1.85;;
57567;SDS011;43403;51.948;5.922;2023-01-01T03:06:04;7.22;;;1.77;;
57567;SDS011;43403;51.948;5.922;2023-01-01T03:08:53;7.07;;;1.70;;
57567;SDS011;43403;51.948;5.922;2023-01-01T03:11:20;6.35;;;2.03;;
57567;SDS011;43403;51.948;5.922;2023-01-01T03:13:59;8.07;;;2.13;;
57567;SDS011;43403;51.948;5.922;2023-01-01T03:19:00;4.95;;;1.50;;
57567;SDS011;43403;51.948;5.922;2023-01-01T03:21:38;9.75;;;2.63;;
57567;SDS011;43403;51.948;5.922;2023-01-01T03:24:05;10.10;;;2.05;;
57567;SDS011;43403;51.948;5.922;2023-01-01T03:26:33;8.10;;;2.00;;
57567;SDS011;43403;51.948;5.922;2023-01-01T03:29:00;9.27;;;1.92;;
57567;SDS011;43403;51.948;5.922;2023-01-01T03:31:27;9.55;;;1.92;;
57567;SDS011;43403;51.948;5.922;2023-01-01T03:34:03;6.38;;;1.92;;
57567;SDS011;43403;51.948;5.922;2023-01-01T03:36:35;8.30;;;2.15;;
57567;SDS011;43403;51.948;5.922;2023-01-01T03:39:04;6.75;;;2.13;;
57567;SDS011;43403;51.948;5.922;2023-01-01T03:46:25;10.30;;;2.30;;
57567;SDS011;43403;51.948;5.922;2023-01-01T03:48:53;11.15;;;2.40;;
57567;SDS011;43403;51.948;5.922;2023-01-01T03:53:55;7.65;;;2.25;;
57567;SDS011;43403;51.948;5.922;2023-01-01T03:58:54;3.78;;;1.33;;
57567;SDS011;43403;51.948;5.922;2023-01-01T04:01:39;9.02;;;2.00;;
57567;SDS011;43403;51.948;5.922;2023-01-01T04:04:06;6.78;;;2.03;;
57567;SDS011;43403;51.948;5.922;2023-01-01T04:06:33;9.90;;;1.88;;
57567;SDS011;43403;51.948;5.922;2023-01-01T04:08:59;5.60;;;1.98;;
57567;SDS011;43403;51.948;5.922;2023-01-01T04:11:27;7.90;;;1.77;;
57567;SDS011;43403;51.948;5.922;2023-01-01T04:14:12;8.02;;;2.15;;
57567;SDS011;43403;51.948;5.922;2023-01-01T04:16:38;7.05;;;1.70;;
57567;SDS011;43403;51.948;5.922;2023-01-01T04:19:05;7.45;;;1.50;;
57567;SDS011;43403;51.948;5.922;2023-01-01T04:21:34;6.70;;;1.60;;
57567;SDS011;43403;51.948;5.922;2023-01-01T04:24:00;5.40;;;1.73;;
57567;SDS011;43403;51.948;5.922;2023-01-01T04:26:26;14.32;;;1.95;;
57567;SDS011;43403;51.948;5.922;2023-01-01T04:28:53;11.43;;;1.60;;
57567;SDS011;43403;51.948;5.922;2023-01-01T04:31:19;6.78;;;1.75;;
57567;SDS011;43403;51.948;5.922;2023-01-01T04:33:45;5.65;;;1.50;;
57567;SDS011;43403;51.948;5.922;2023-01-01T04:36:12;10.00;;;2.15;;
57567;SDS011;43403;51.948;5.922;2023-01-01T04:38:38;8.23;;;1.40;;
57567;SDS011;43403;51.948;5.922;2023-01-01T04:41:04;6.35;;;1.48;;
57567;SDS011;43403;51.948;5.922;2023-01-01T04:43:31;5.82;;;1.63;;
57567;SDS011;43403;51.948;5.922;2023-01-01T04:45:57;7.60;;;1.42;;
57567;SDS011;43403;51.948;5.922;2023-01-01T04:48:24;15.68;;;2.13;;
57567;SDS011;43403;51.948;5.922;2023-01-01T04:50:57;6.15;;;1.40;;
57567;SDS011;43403;51.948;5.922;2023-01-01T04:53:24;4.70;;;1.67;;
57567;SDS011;43403;51.948;5.922;2023-01-01T04:55:50;8.30;;;1.63;;
57567;SDS011;43403;51.948;5.922;2023-01-01T04:58:16;12.65;;;1.63;;
57567;SDS011;43403;51.948;5.922;2023-01-01T05:00:43;4.15;;;1.35;;
57567;SDS011;43403;51.948;5.922;2023-01-01T05:03:09;4.50;;;1.27;;
57567;SDS011;43403;51.948;5.922;2023-01-01T05:05:35;6.53;;;1.70;;
57567;SDS011;43403;51.948;5.922;2023-01-01T05:08:02;9.13;;;1.90;;
57567;SDS011;43403;51.948;5.922;2023-01-01T05:10:28;6.13;;;2.05;;
57567;SDS011;43403;51.948;5.922;2023-01-01T05:12:54;6.60;;;2.42;;
57567;SDS011;43403;51.948;5.922;2023-01-01T05:15:20;6.78;;;1.73;;
57567;SDS011;43403;51.948;5.922;2023-01-01T05:17:47;9.05;;;1.83;;
57567;SDS011;43403;51.948;5.922;2023-01-01T05:20:13;5.28;;;1.58;;
57567;SDS011;43403;51.948;5.922;2023-01-01T05:22:39;6.28;;;2.00;;
57567;SDS011;43403;51.948;5.922;2023-01-01T05:25:06;4.97;;;1.42;;
57567;SDS011;43403;51.948;5.922;2023-01-01T05:27:32;10.88;;;1.80;;
57567;SDS011;43403;51.948;5.922;2023-01-01T05:29:58;5.38;;;1.55;;
57567;SDS011;43403;51.948;5.922;2023-01-01T05:32:25;6.28;;;1.55;;
57567;SDS011;43403;51.948;5.922;2023-01-01T05:34:51;11.35;;;1.90;;
57567;SDS011;43403;51.948;5.922;2023-01-01T05:37:18;6.53;;;1.70;;
57567;SDS011;43403;51.948;5.922;2023-01-01T05:39:44;7.82;;;1.85;;
57567;SDS011;43403;51.948;5.922;2023-01-01T05:42:11;9.20;;;1.88;;
57567;SDS011;43403;51.948;5.922;2023-01-01T05:44:37;8.32;;;1.67;;
57567;SDS011;43403;51.948;5.922;2023-01-01T05:47:03;9.75;;;1.80;;
57567;SDS011;43403;51.948;5.922;2023-01-01T05:49:29;8.30;;;1.40;;
57567;SDS011;43403;51.948;5.922;2023-01-01T05:51:56;6.57;;;1.42;;
57567;SDS011;43403;51.948;5.922;2023-01-01T05:54:22;6.60;;;1.48;;
57567;SDS011;43403;51.948;5.922;2023-01-01T05:56:48;8.40;;;1.70;;
57567;SDS011;43403;51.948;5.922;2023-01-01T05:59:15;7.43;;;1.40;;
57567;SDS011;43403;51.948;5.922;2023-01-01T06:01:41;9.25;;;1.45;;
57567;SDS011;43403;51.948;5.922;2023-01-01T06:04:11;7.10;;;1.80;;
57567;SDS011;43403;51.948;5.922;2023-01-01T06:06:37;6.28;;;1.80;;
57567;SDS011;43403;51.948;5.922;2023-01-01T06:09:04;7.03;;;1.73;;
57567;SDS011;43403;51.948;5.922;2023-01-01T06:11:30;9.40;;;2.17;;
57567;SDS011;43403;51.948;5.922;2023-01-01T06:13:57;7.72;;;1.77;;
57567;SDS011;43403;51.948;5.922;2023-01-01T06:16:24;7.75;;;1.45;;
57567;SDS011;43403;51.948;5.922;2023-01-01T06:18:51;5.78;;;1.42;;
57567;SDS011;43403;51.948;5.922;2023-01-01T06:21:18;7.95;;;1.58;;
57567;SDS011;43403;51.948;5.922;2023-01-01T06:23:45;3.50;;;1.00;;
57567;SDS011;43403;51.948;5.922;2023-01-01T06:26:12;3.90;;;1.20;;
57567;SDS011;43403;51.948;5.922;2023-01-01T06:28:39;10.70;;;1.63;;
57567;SDS011;43403;51.948;5.922;2023-01-01T06:31:06;4.43;;;1.35;;
57567;SDS011;43403;51.948;5.922;2023-01-01T06:33:33;4.45;;;1.52;;
57567;SDS011;43403;51.948;5.922;2023-01-01T06:36:00;3.88;;;1.00;;
57567;SDS011;43403;51.948;5.922;2023-01-01T06:38:29;6.30;;;1.40;;
57567;SDS011;43403;51.948;5.922;2023-01-01T06:40:56;5.97;;;1.67;;
57567;SDS011;43403;51.948;5.922;2023-01-01T06:43:22;3.15;;;1.00;;
57567;SDS011;43403;51.948;5.922;2023-01-01T06:45:58;8.93;;;2.80;;
57567;SDS011;43403;51.948;5.922;2023-01-01T06:48:24;4.35;;;1.17;;
57567;SDS011;43403;51.948;5.922;2023-01-01T06:50:50;5.03;;;1.80;;
57567;SDS011;43403;51.948;5.922;2023-01-01T06:53:17;8.65;;;1.60;;
57567;SDS011;43403;51.948;5.922;2023-01-01T06:55:49;4.05;;;1.10;;
57567;SDS011;43403;51.948;5.922;2023-01-01T06:58:21;7.50;;;1.63;;
57567;SDS011;43403;51.948;5.922;2023-01-01T07:00:48;6.13;;;1.10;;
57567;SDS011;43403;51.948;5.922;2023-01-01T07:03:14;4.25;;;0.85;;
57567;SDS011;43403;51.948;5.922;2023-01-01T07:05:40;6.97;;;0.80;;
57567;SDS011;43403;51.948;5.922;2023-01-01T07:08:07;5.45;;;0.98;;
57567;SDS011;43403;51.948;5.922;2023-01-01T07:10:33;2.88;;;0.60;;
57567;SDS011;43403;51.948;5.922;2023-01-01T07:12:59;3.22;;;0.65;;
57567;SDS011;43403;51.948;5.922;2023-01-01T07:15:26;5.78;;;0.88;;
57567;SDS011;43403;51.948;5.922;2023-01-01T07:17:53;2.58;;;0.90;;
57567;SDS011;43403;51.948;5.922;2023-01-01T07:20:19;3.30;;;0.80;;
57567;SDS011;43403;51.948;5.922;2023-01-01T07:22:45;6.07;;;0.85;;
57567;SDS011;43403;51.948;5.922;2023-01-01T07:25:13;4.72;;;0.70;;
57567;SDS011;43403;51.948;5.922;2023-01-01T07:27:39;3.40;;;0.73;;
57567;SDS011;43403;51.948;5.922;2023-01-01T07:30:05;3.75;;;0.75;;
57567;SDS011;43403;51.948;5.922;2023-01-01T07:32:32;1.80;;;0.65;;
57567;SDS011;43403;51.948;5.922;2023-01-01T07:34:58;2.67;;;0.52;;
57567;SDS011;43403;51.948;5.922;2023-01-01T07:37:24;4.45;;;0.80;;
57567;SDS011;43403;51.948;5.922;2023-01-01T07:39:51;3.83;;;0.88;;
57567;SDS011;43403;51.948;5.922;2023-01-01T07:42:17;3.13;;;0.82;;
57567;SDS011;43403;51.948;5.922;2023-01-01T07:44:44;2.85;;;0.60;;
57567;SDS011;43403;51.948;5.922;2023-01-01T07:47:19;2.05;;;0.63;;
57567;SDS011;43403;51.948;5.922;2023-01-01T07:49:46;4.22;;;0.73;;
57567;SDS011;43403;51.948;5.922;2023-01-01T07:52:12;4.57;;;0.70;;
57567;SDS011;43403;51.948;5.922;2023-01-01T07:54:38;2.28;;;0.60;;
57567;SDS011;43403;51.948;5.922;2023-01-01T07:57:04;4.07;;;0.80;;
57567;SDS011;43403;51.948;5.922;2023-01-01T07:59:31;7.25;;;0.90;;
57567;SDS011;43403;51.948;5.922;2023-01-01T08:01:57;5.25;;;0.70;;
57567;SDS011;43403;51.948;5.922;2023-01-01T08:04:23;1.75;;;0.80;;
57567;SDS011;43403;51.948;5.922;2023-01-01T08:06:52;4.03;;;0.80;;
57567;SDS011;43403;51.948;5.922;2023-01-01T08:09:18;4.97;;;0.95;;
57567;SDS011;43403;51.948;5.922;2023-01-01T08:11:44;2.83;;;0.98;;
57567;SDS011;43403;51.948;5.922;2023-01-01T08:14:11;2.42;;;0.80;;
57567;SDS011;43403;51.948;5.922;2023-01-01T08:16:37;3.75;;;0.90;;
57567;SDS011;43403;51.948;5.922;2023-01-01T08:19:04;4.70;;;1.08;;
57567;SDS011;43403;51.948;5.922;2023-01-01T08:21:30;5.55;;;1.30;;
57567;SDS011;43403;51.948;5.922;2023-01-01T08:23:56;4.70;;;1.23;;
57567;SDS011;43403;51.948;5.922;2023-01-01T08:26:27;5.28;;;0.77;;
57567;SDS011;43403;51.948;5.922;2023-01-01T08:28:54;5.45;;;0.80;;
57567;SDS011;43403;51.948;5.922;2023-01-01T08:31:22;10.05;;;1.02;;
57567;SDS011;43403;51.948;5.922;2023-01-01T08:33:49;7.95;;;1.25;;
57567;SDS011;43403;51.948;5.922;2023-01-01T08:36:15;4.00;;;0.95;;
57567;SDS011;43403;51.948;5.922;2023-01-01T08:38:42;6.43;;;1.13;;
57567;SDS011;43403;51.948;5.922;2023-01-01T08:41:08;6.70;;;0.80;;
57567;SDS011;43403;51.948;5.922;2023-01-01T08:43:34;5.50;;;1.10;;
57567;SDS011;43403;51.948;5.922;2023-01-01T08:46:01;6.78;;;1.02;;
57567;SDS011;43403;51.948;5.922;2023-01-01T08:48:27;4.07;;;0.82;;
57567;SDS011;43403;51.948;5.922;2023-01-01T08:50:56;4.18;;;1.00;;
57567;SDS011;43403;51.948;5.922;2023-01-01T08:53:26;4.25;;;1.20;;
57567;SDS011;43403;51.948;5.922;2023-01-01T08:55:59;3.78;;;1.35;;
57567;SDS011;43403;51.948;5.922;2023-01-01T08:58:26;4.55;;;0.90;;
57567;SDS011;43403;51.948;5.922;2023-01-01T09:00:52;4.63;;;1.00;;
57567;SDS011;43403;51.948;5.922;2023-01-01T09:03:19;10.80;;;1.40;;
57567;SDS011;43403;51.948;5.922;2023-01-01T09:05:46;5.40;;;1.20;;
57567;SDS011;43403;51.948;5.922;2023-01-01T09:08:12;5.47;;;1.02;;
57567;SDS011;43403;51.948;5.922;2023-01-01T09:10:39;7.55;;;1.90;;
57567;SDS011;43403;51.948;5.922;2023-01-01T09:13:05;5.75;;;1.17;;
57567;SDS011;43403;51.948;5.922;2023-01-01T09:15:31;9.38;;;1.50;;
57567;SDS011;43403;51.948;5.922;2023-01-01T09:17:58;4.70;;;0.85;;
57567;SDS011;43403;51.948;5.922;2023-01-01T09:20:24;9.18;;;1.30;;
57567;SDS011;43403;51.948;5.922;2023-01-01T09:22:50;6.90;;;1.15;;
57567;SDS011;43403;51.948;5.922;2023-01-01T09:25:17;6.25;;;1.10;;
57567;SDS011;43403;51.948;5.922;2023-01-01T09:27:43;6.28;;;1.20;;
57567;SDS011;43403;51.948;5.922;2023-01-01T09:30:10;8.60;;;1.30;;
57567;SDS011;43403;51.948;5.922;2023-01-01T09:32:36;5.82;;;1.50;;
57567;SDS011;43403;51.948;5.922;2023-01-01T09:35:03;7.25;;;1.58;;
57567;SDS011;43403;51.948;5.922;2023-01-01T09:37:29;6.53;;;1.60;;
57567;SDS011;43403;51.948;5.922;2023-01-01T09:39:56;5.70;;;1.10;;
57567;SDS011;43403;51.948;5.922;2023-01-01T09:42:36;4.22;;;1.40;;
57567;SDS011;43403;51.948;5.922;2023-01-01T09:47:44;7.47;;;1.40;;
57567;SDS011;43403;51.948;5.922;2023-01-01T09:50:21;8.77;;;1.30;;
57567;SDS011;43403;51.948;5.922;2023-01-01T09:52:56;7.43;;;1.40;;
57567;SDS011;43403;51.948;5.922;2023-01-01T09:58:04;6.63;;;1.30;;
57567;SDS011;43403;51.948;5.922;2023-01-01T10:00:30;10.60;;;1.15;;
57567;SDS011;43403;51.948;5.922;2023-01-01T10:03:06;4.53;;;0.90;;
57567;SDS011;43403;51.948;5.922;2023-01-01T10:08:14;7.93;;;1.55;;
57567;SDS011;43403;51.948;5.922;2023-01-01T10:10:49;7.85;;;1.20;;
57567;SDS011;43403;51.948;5.922;2023-01-01T10:13:24;5.72;;;1.70;;
57567;SDS011;43403;51.948;5.922;2023-01-01T10:15:56;10.18;;;1.75;;
57567;SDS011;43403;51.948;5.922;2023-01-01T10:18:25;9.93;;;1.60;;
57567;SDS011;43403;51.948;5.922;2023-01-01T10:20:57;8.50;;;1.48;;
57567;SDS011;43403;51.948;5.922;2023-01-01T10:23:24;8.32;;;1.83;;
57567;SDS011;43403;51.948;5.922;2023-01-01T10:25:52;8.97;;;1.57;;
57567;SDS011;43403;51.948;5.922;2023-01-01T10:28:29;5.78;;;1.42;;
57567;SDS011;43403;51.948;5.922;2023-01-01T10:31:13;7.28;;;1.80;;
57567;SDS011;43403;51.948;5.922;2023-01-01T10:33:40;4.72;;;1.10;;
57567;SDS011;43403;51.948;5.922;2023-01-01T10:36:08;5.38;;;1.17;;
57567;SDS011;43403;51.948;5.922;2023-01-01T10:38:35;4.80;;;1.20;;
57567;SDS011;43403;51.948;5.922;2023-01-01T10:41:05;5.72;;;1.33;;
57567;SDS011;43403;51.948;5.922;2023-01-01T10:43:32;4.47;;;1.10;;
57567;SDS011;43403;51.948;5.922;2023-01-01T10:45:59;10.80;;;1.90;;
57567;SDS011;43403;51.948;5.922;2023-01-01T10:48:27;10.27;;;2.13;;
57567;SDS011;43403;51.948;5.922;2023-01-01T10:50:56;3.90;;;0.93;;
57567;SDS011;43403;51.948;5.922;2023-01-01T10:53:26;6.65;;;1.10;;
57567;SDS011;43403;51.948;5.922;2023-01-01T10:55:57;9.77;;;1.67;;
57567;SDS011;43403;51.948;5.922;2023-01-01T10:58:35;7.95;;;1.40;;
57567;SDS011;43403;51.948;5.922;2023-01-01T11:01:03;14.00;;;1.38;;
57567;SDS011;43403;51.948;5.922;2023-01-01T11:03:30;10.32;;;1.60;;
57567;SDS011;43403;51.948;5.922;2023-01-01T11:06:00;5.47;;;1.50;;
57567;SDS011;43403;51.948;5.922;2023-01-01T11:08:28;7.97;;;2.05;;
57567;SDS011;43403;51.948;5.922;2023-01-01T11:10:56;7.88;;;1.70;;
57567;SDS011;43403;51.948;5.922;2023-01-01T11:13:23;8.48;;;1.50;;
57567;SDS011;43403;51.948;5.922;2023-01-01T11:15:50;8.90;;;1.40;;
57567;SDS011;43403;51.948;5.922;2023-01-01T11:20:52;9.98;;;2.00;;
57567;SDS011;43403;51.948;5.922;2023-01-01T11:23:27;10.85;;;2.80;;
57567;SDS011;43403;51.948;5.922;2023-01-01T11:25:59;7.78;;;1.70;;
57567;SDS011;43403;51.948;5.922;2023-01-01T11:28:26;6.13;;;1.63;;
57567;SDS011;43403;51.948;5.922;2023-01-01T11:31:13;8.65;;;2.38;;
57567;SDS011;43403;51.948;5.922;2023-01-01T11:33:48;5.97;;;2.00;;
57567;SDS011;43403;51.948;5.922;2023-01-01T11:36:25;12.43;;;2.70;;
57567;SDS011;43403;51.948;5.922;2023-01-01T11:41:43;7.88;;;2.75;;
57567;SDS011;43403;51.948;5.922;2023-01-01T11:44:10;13.10;;;4.10;;
57567;SDS011;43403;51.948;5.922;2023-01-01T11:46:37;9.55;;;3.75;;
57567;SDS011;43403;51.948;5.922;2023-01-01T11:49:11;12.15;;;3.85;;
57567;SDS011;43403;51.948;5.922;2023-01-01T11:51:37;12.75;;;3.00;;
57567;SDS011;43403;51.948;5.922;2023-01-01T11:54:49;8.27;;;2.90;;
57567;SDS011;43403;51.948;5.922;2023-01-01T11:56:52;11.70;;;3.53;;
57567;SDS011;43403;51.948;5.922;2023-01-01T11:59:20;9.95;;;3.10;;
57567;SDS011;43403;51.948;5.922;2023-01-01T12:01:49;12.57;;;3.63;;
57567;SDS011;43403;51.948;5.922;2023-01-01T12:06:54;12.20;;;3.70;;
57567;SDS011;43403;51.948;5.922;2023-01-01T12:09:27;9.75;;;3.33;;
57567;SDS011;43403;51.948;5.922;2023-01-01T12:14:52;13.68;;;3.42;;
57567;SDS011;43403;51.948;5.922;2023-01-01T12:17:33;12.13;;;3.28;;
57567;SDS011;43403;51.948;5.922;2023-01-01T12:20:20;7.85;;;2.50;;
57567;SDS011;43403;51.948;5.922;2023-01-01T12:22:47;11.98;;;3.20;;
57567;SDS011;43403;51.948;5.922;2023-01-01T12:25:14;9.55;;;3.15;;
57567;SDS011;43403;51.948;5.922;2023-01-01T12:51:17;15.13;;;2.63;;
57567;SDS011;43403;51.948;5.922;2023-01-01T12:56:41;9.38;;;3.03;;
57567;SDS011;43403;51.948;5.922;2023-01-01T13:01:34;10.57;;;2.83;;
57567;SDS011;43403;51.948;5.922;2023-01-01T13:04:05;11.00;;;2.95;;
57567;SDS011;43403;51.948;5.922;2023-01-01T13:06:35;11.23;;;2.38;;
57567;SDS011;43403;51.948;5.922;2023-01-01T13:09:03;12.80;;;2.75;;
57567;SDS011;43403;51.948;5.922;2023-01-01T13:11:31;9.70;;;2.65;;
57567;SDS011;43403;51.948;5.922;2023-01-01T13:14:02;12.82;;;2.65;;
57567;SDS011;43403;51.948;5.922;2023-01-01T13:16:32;7.60;;;2.35;;
57567;SDS011;43403;51.948;5.922;2023-01-01T13:18:59;9.38;;;2.42;;
57567;SDS011;43403;51.948;5.922;2023-01-01T13:21:28;12.57;;;2.13;;
57567;SDS011;43403;51.948;5.922;2023-01-01T13:23:56;11.60;;;1.80;;
57567;SDS011;43403;51.948;5.922;2023-01-01T13:31:58;12.77;;;2.22;;
57567;SDS011;43403;51.948;5.922;2023-01-01T13:42:37;15.63;;;2.97;;
57567;SDS011;43403;51.948;5.922;2023-01-01T13:45:06;7.82;;;2.03;;
57567;SDS011;43403;51.948;5.922;2023-01-01T13:47:44;9.85;;;2.42;;
57567;SDS011;43403;51.948;5.922;2023-01-01T13:50:19;14.25;;;2.30;;
57567;SDS011;43403;51.948;5.922;2023-01-01T14:00:24;13.20;;;2.55;;
57567;SDS011;43403;51.948;5.922;2023-01-01T14:02:58;12.85;;;2.70;;
57567;SDS011;43403;51.948;5.922;2023-01-01T14:07:54;11.38;;;3.13;;
57567;SDS011;43403;51.948;5.922;2023-01-01T14:10:22;13.30;;;2.92;;
57567;SDS011;43403;51.948;5.922;2023-01-01T14:12:49;14.02;;;2.95;;
57567;SDS011;43403;51.948;5.922;2023-01-01T14:15:21;8.10;;;2.45;;
57567;SDS011;43403;51.948;5.922;2023-01-01T14:17:48;10.63;;;2.38;;
57567;SDS011;43403;51.948;5.922;2023-01-01T14:20:16;10.20;;;2.38;;
57567;SDS011;43403;51.948;5.922;2023-01-01T14:22:44;11.93;;;2.20;;
57567;SDS011;43403;51.948;5.922;2023-01-01T14:25:14;12.88;;;2.72;;
57567;SDS011;43403;51.948;5.922;2023-01-01T14:27:42;13.45;;;2.83;;
57567;SDS011;43403;51.948;5.922;2023-01-01T14:30:15;11.32;;;2.30;;
57567;SDS011;43403;51.948;5.922;2023-01-01T14:32:41;10.70;;;2.65;;
57567;SDS011;43403;51.948;5.922;2023-01-01T14:35:15;10.57;;;2.70;;
57567;SDS011;43403;51.948;5.922;2023-01-01T14:37:41;13.32;;;2.78;;
57567;SDS011;43403;51.948;5.922;2023-01-01T14:40:15;10.02;;;2.72;;
57567;SDS011;43403;51.948;5.922;2023-01-01T14:42:43;12.35;;;2.88;;
57567;SDS011;43403;51.948;5.922;2023-01-01T14:45:14;9.02;;;2.25;;
57567;SDS011;43403;51.948;5.922;2023-01-01T14:47:41;10.13;;;2.70;;
57567;SDS011;43403;51.948;5.922;2023-01-01T14:52:42;7.20;;;2.00;;
57567;SDS011;43403;51.948;5.922;2023-01-01T14:55:15;14.65;;;2.58;;
57567;SDS011;43403;51.948;5.922;2023-01-01T14:57:43;15.73;;;2.72;;
57567;SDS011;43403;51.948;5.922;2023-01-01T15:02:36;10.30;;;2.22;;
57567;SDS011;43403;51.948;5.922;2023-01-01T15:08:03;14.75;;;2.38;;
57567;SDS011;43403;51.948;5.922;2023-01-01T15:10:32;10.65;;;2.28;;
57567;SDS011;43403;51.948;5.922;2023-01-01T15:12:58;12.50;;;2.58;;
57567;SDS011;43403;51.948;5.922;2023-01-01T15:15:32;11.07;;;2.42;;
57567;SDS011;43403;51.948;5.922;2023-01-01T15:17:59;11.80;;;3.50;;
57567;SDS011;43403;51.948;5.922;2023-01-01T15:20:25;10.32;;;2.88;;
57567;SDS011;43403;51.948;5.922;2023-01-01T15:22:58;11.65;;;2.40;;
57567;SDS011;43403;51.948;5.922;2023-01-01T15:25:33;11.35;;;2.80;;
57567;SDS011;43403;51.948;5.922;2023-01-01T15:28:03;10.65;;;3.45;;
57567;SDS011;43403;51.948;5.922;2023-01-01T15:30:31;8.45;;;2.50;;
57567;SDS011;43403;51.948;5.922;2023-01-01T15:37:58;12.98;;;2.83;;
57567;SDS011;43403;51.948;5.922;2023-01-01T15:43:11;9.13;;;2.50;;
57567;SDS011;43403;51.948;5.922;2023-01-01T15:45:49;13.85;;;3.67;;
57567;SDS011;43403;51.948;5.922;2023-01-01T15:51:12;11.32;;;2.85;;
57567;SDS011;43403;51.948;5.922;2023-01-01T15:53:44;12.32;;;4.00;;
57567;SDS011;43403;51.948;5.922;2023-01-01T15:56:14;12.35;;;4.60;;
57567;SDS011;43403;51.948;5.922;2023-01-01T15:59:00;15.88;;;5.43;;
57567;SDS011;43403;51.948;5.922;2023-01-01T16:01:34;11.50;;;5.10;;
57567;SDS011;43403;51.948;5.922;2023-01-01T16:04:06;15.63;;;6.30;;
57567;SDS011;43403;51.948;5.922;2023-01-01T16:06:40;13.77;;;6.53;;
57567;SDS011;43403;51.948;5.922;2023-01-01T16:09:09;16.70;;;5.85;;
57567;SDS011;43403;51.948;5.922;2023-01-01T16:11:37;17.35;;;7.20;;
57567;SDS011;43403;51.948;5.922;2023-01-01T16:14:03;19.83;;;9.25;;
57567;SDS011;43403;51.948;5.922;2023-01-01T16:16:30;27.20;;;19.13;;
57567;SDS011;43403;51.948;5.922;2023-01-01T16:18:58;29.60;;;20.00;;
57567;SDS011;43403;51.948;5.922;2023-01-01T16:21:25;35.67;;;18.25;;
57567;SDS011;43403;51.948;5.922;2023-01-01T16:23:52;29.23;;;15.35;;
57567;SDS011;43403;51.948;5.922;2023-01-01T16:26:19;17.27;;;9.82;;
57567;SDS011;43403;51.948;5.922;2023-01-01T16:28:45;11.50;;;5.20;;
57567;SDS011;43403;51.948;5.922;2023-01-01T16:31:12;14.60;;;6.00;;
57567;SDS011;43403;51.948;5.922;2023-01-01T16:33:39;16.35;;;5.50;;
57567;SDS011;43403;51.948;5.922;2023-01-01T16:36:09;16.42;;;5.03;;
57567;SDS011;43403;51.948;5.922;2023-01-01T16:38:35;15.82;;;6.10;;
57567;SDS011;43403;51.948;5.922;2023-01-01T16:41:02;15.45;;;5.70;;
57567;SDS011;43403;51.948;5.922;2023-01-01T16:43:28;13.70;;;8.00;;
57567;SDS011;43403;51.948;5.922;2023-01-01T16:45:54;20.17;;;8.20;;
57567;SDS011;43403;51.948;5.922;2023-01-01T16:48:21;17.60;;;9.57;;